Time;durP1;ratioP1;P1;durP2;ratioP2;P2;SDS_P1;SDS_P2;PMS_P1;PMS_P2;Temp;Humidity;BMP_temperature;BMP_pressure;BME280_temperature;BME280_humidity;BME280_pressure;Samples;Min_cycle;Max_cycle;Signal;HPM_P1;HPM_P2
2022/05/17 00:00:24;;;;;;;29.23;11.05;;;13.70;99.90;;;;;;5072536;28;20360;-67
2022/05/17 00:02:49;;;;;;;;;;;13.80;99.90;;;;;;5072646;28;20052;-67
2022/05/17 00:05:15;;;;;;;28.80;11.02;;;15.00;99.90;;;;;;5072508;28;19970;-68
2022/05/17 00:07:40;;;;;;;;;;;14.70;99.90;;;;;;5073070;28;20036;-68
2022/05/17 00:10:07;;;;;;;33.53;11.65;;;14.30;99.90;;;;;;5072680;28;19924;-68
2022/05/17 00:12:33;;;;;;;26.77;10.88;;;13.90;99.90;;;;;;5072498;28;20044;-68
2022/05/17 00:14:59;;;;;;;36.80;10.95;;;14.10;99.90;;;;;;5072391;28;20044;-67
2022/05/17 00:17:24;;;;;;;;;;;14.00;99.90;;;;;;5105334;28;20040;-67
2022/05/17 00:19:50;;;;;;;24.20;10.98;;;14.00;99.90;;;;;;5072251;28;19927;-67
2022/05/17 00:22:16;;;;;;;;;;;13.80;99.90;;;;;;5072906;28;20041;-68
2022/05/17 00:24:42;;;;;;;32.10;11.82;;;13.80;99.90;;;;;;5072429;28;19936;-67
2022/05/17 00:27:08;;;;;;;;;;;14.80;99.90;;;;;;5073026;28;20094;-68
2022/05/17 00:29:34;;;;;;;34.10;11.18;;;14.00;99.90;;;;;;5071861;28;19957;-67
2022/05/17 00:32:00;;;;;;;27.42;10.43;;;13.80;99.90;;;;;;5072290;28;20054;-68
2022/05/17 00:34:27;;;;;;;27.13;10.85;;;13.80;99.90;;;;;;5072373;28;20047;-68
2022/05/17 00:36:53;;;;;;;31.52;11.02;;;13.90;99.90;;;;;;5072294;28;20516;-68
2022/05/17 00:39:19;;;;;;;30.30;12.13;;;14.80;99.90;;;;;;5072252;28;20110;-68
2022/05/17 00:41:45;;;;;;;29.75;10.65;;;14.10;99.90;;;;;;5072298;28;20080;-68
2022/05/17 00:47:04;;;;;;;32.40;10.60;;;13.90;99.90;;;;;;5072210;28;20055;-68
2022/05/17 00:50:01;;;;;;;30.00;11.48;;;13.90;99.90;;;;;;5072025;28;20082;-68
2022/05/17 00:52:33;;;;;;;35.20;10.98;;;13.80;99.90;;;;;;5056075;28;20495;-68
2022/05/17 00:55:06;;;;;;;30.13;11.05;;;14.20;99.90;;;;;;5076010;28;20404;-68
2022/05/17 00:57:39;;;;;;;27.52;11.10;;;13.90;99.90;;;;;;5075855;28;20567;-68
2022/05/17 01:00:11;;;;;;;36.08;11.70;;;13.60;99.90;;;;;;5075793;28;20055;-68
2022/05/17 01:02:37;;;;;;;32.42;12.27;;;13.90;99.90;;;;;;5076006;28;20051;-66
2022/05/17 01:05:04;;;;;;;35.22;11.60;;;13.70;99.90;;;;;;5075934;28;20044;-68
2022/05/17 01:07:46;;;;;;;36.05;12.30;;;13.60;99.90;;;;;;5075749;28;20057;-67
2022/05/17 01:10:12;;;;;;;32.45;12.05;;;14.10;99.90;;;;;;5075914;28;20050;-67
2022/05/17 01:12:38;;;;;;;;;;;13.40;99.90;;;;;;5076015;28;20048;-69
2022/05/17 01:15:07;;;;;;;35.47;13.13;;;13.60;99.90;;;;;;5075892;28;19981;-66
2022/05/17 01:17:35;;;;;;;32.88;13.60;;;13.80;99.90;;;;;;5075740;28;20052;-66
2022/05/17 01:20:06;;;;;;;31.30;12.52;;;13.40;99.90;;;;;;5075663;28;20072;-66
2022/05/17 01:22:31;;;;;;;29.45;13.60;;;13.40;99.90;;;;;;5075655;28;20086;-66
2022/05/17 01:24:57;;;;;;;23.35;12.10;;;13.10;99.90;;;;;;5075642;28;20127;-67
2022/05/17 01:27:25;;;;;;;;;;;13.50;99.90;;;;;;5076035;28;20044;-69
2022/05/17 01:29:52;;;;;;;30.13;12.57;;;13.70;99.90;;;;;;5075222;28;19997;-67
2022/05/17 01:32:18;;;;;;;33.60;12.50;;;14.60;99.90;;;;;;5075462;28;20510;-67
2022/05/17 01:34:44;;;;;;;31.58;12.65;;;13.30;99.90;;;;;;5075272;28;20151;-67
2022/05/17 01:37:12;;;;;;;40.17;13.55;;;13.40;99.90;;;;;;5074832;28;20044;-67
2022/05/17 01:39:38;;;;;;;32.28;13.75;;;13.10;99.90;;;;;;5075368;28;20040;-66
2022/05/17 01:42:04;;;;;;;33.00;14.10;;;13.40;99.90;;;;;;5075174;28;20484;-68
2022/05/17 01:44:31;;;;;;;36.35;12.80;;;13.30;99.90;;;;;;5075080;28;20107;-66
2022/05/17 01:46:57;;;;;;;26.63;12.93;;;13.10;99.90;;;;;;5074999;28;20054;-67
2022/05/17 01:49:22;;;;;;;37.33;12.82;;;13.30;99.90;;;;;;5074876;28;20036;-67
2022/05/17 01:51:48;;;;;;;38.30;13.43;;;13.30;99.90;;;;;;5074801;28;20052;-68
2022/05/17 01:54:14;;;;;;;35.58;13.00;;;13.10;99.90;;;;;;5075038;28;20054;-67
2022/05/17 01:56:40;;;;;;;35.70;13.15;;;13.20;99.90;;;;;;5074782;28;20055;-68
2022/05/17 01:59:06;;;;;;;35.42;12.77;;;13.30;99.90;;;;;;5074875;28;20480;-68
2022/05/17 02:01:31;;;;;;;36.58;13.20;;;13.10;99.90;;;;;;5074324;28;20106;-67
2022/05/17 02:03:57;;;;;;;33.75;12.93;;;13.10;99.90;;;;;;5074677;28;20044;-66
2022/05/17 02:06:23;;;;;;;32.13;13.05;;;14.00;99.90;;;;;;5074617;28;20047;-67
2022/05/17 02:08:49;;;;;;;34.55;12.75;;;13.30;99.90;;;;;;5074613;28;20044;-67
2022/05/17 02:11:15;;;;;;;;;;;12.90;99.90;;;;;;5075163;28;20119;-68
2022/05/17 02:13:41;;;;;;;32.75;12.00;;;13.50;99.90;;;;;;5074466;28;19982;-67
2022/05/17 02:16:09;;;;;;;31.50;12.88;;;12.90;99.90;;;;;;5074503;28;20048;-67
2022/05/17 02:18:35;;;;;;;31.63;12.93;;;12.50;99.90;;;;;;5074333;28;20056;-67
2022/05/17 02:21:01;;;;;;;;;;;12.70;99.90;;;;;;5073377;28;20055;-67
2022/05/17 02:23:27;;;;;;;28.75;12.88;;;12.70;99.90;;;;;;5074498;28;20368;-67
2022/05/17 02:25:53;;;;;;;39.30;13.50;;;12.60;99.90;;;;;;5074416;28;20048;-67
2022/05/17 02:28:19;;;;;;;;;;;13.40;99.90;;;;;;5074742;28;20090;-67
2022/05/17 02:30:45;;;;;;;36.65;13.88;;;12.60;99.90;;;;;;5073841;28;19920;-68
2022/05/17 02:33:12;;;;;;;41.08;13.57;;;12.40;99.90;;;;;;5106910;28;20040;-66
2022/05/17 02:35:39;;;;;;;33.90;13.40;;;12.70;99.90;;;;;;5072655;28;20048;-66
2022/05/17 02:38:05;;;;;;;33.28;13.52;;;12.70;99.90;;;;;;5074202;28;20174;-66
2022/05/17 02:40:30;;;;;;;;;;;12.90;99.90;;;;;;5074362;28;20040;-67
2022/05/17 02:42:56;;;;;;;36.25;14.55;;;12.80;99.90;;;;;;5074148;28;19943;-67
2022/05/17 02:45:22;;;;;;;33.92;14.57;;;12.40;99.90;;;;;;5073832;28;20052;-67
2022/05/17 02:47:48;;;;;;;37.75;13.95;;;12.90;99.90;;;;;;5073849;28;20048;-66
2022/05/17 02:50:15;;;;;;;32.97;13.60;;;12.80;99.90;;;;;;5072451;28;20563;-66
2022/05/17 02:52:41;;;;;;;34.97;14.90;;;12.50;99.90;;;;;;5073766;28;20117;-66
2022/05/17 02:55:07;;;;;;;36.40;13.95;;;12.60;99.90;;;;;;5074006;28;20045;-66
2022/05/17 02:57:33;;;;;;;38.35;14.25;;;12.70;99.90;;;;;;5073552;28;20040;-67
2022/05/17 02:59:59;;;;;;;37.15;14.85;;;12.70;99.90;;;;;;5073649;28;20087;-67
2022/05/17 03:02:26;;;;;;;31.95;14.25;;;12.80;99.90;;;;;;5073669;28;20435;-67
2022/05/17 03:04:52;;;;;;;31.42;14.15;;;14.10;99.90;;;;;;5073376;28;20064;-67
2022/05/17 03:07:18;;;;;;;37.70;14.07;;;13.60;99.90;;;;;;5072609;28;20053;-67
2022/05/17 03:09:43;;;;;;;38.63;13.50;;;12.60;99.90;;;;;;5073384;28;20040;-68
2022/05/17 03:12:10;;;;;;;39.08;14.02;;;12.40;99.90;;;;;;5073503;28;20056;-67
2022/05/17 03:14:36;;;;;;;35.33;14.48;;;12.40;99.90;;;;;;5072377;28;20037;-68
2022/05/17 03:17:12;;;;;;;30.45;13.18;;;12.60;99.90;;;;;;5073253;28;20059;-67
2022/05/17 03:19:39;;;;;;;33.22;13.38;;;12.40;99.90;;;;;;5073465;28;20048;-67
2022/05/17 03:22:05;;;;;;;34.00;13.30;;;12.70;99.90;;;;;;5073256;28;20055;-68
2022/05/17 03:24:31;;;;;;;23.33;12.45;;;12.20;99.90;;;;;;5073303;28;20071;-67
2022/05/17 03:26:58;;;;;;;37.00;13.07;;;12.60;99.90;;;;;;5073012;28;20094;-66
2022/05/17 03:29:24;;;;;;;28.23;12.77;;;12.20;99.90;;;;;;5072703;28;20044;-67
2022/05/17 03:31:50;;;;;;;;;;;12.10;99.90;;;;;;5073348;28;20052;-68
2022/05/17 03:34:16;;;;;;;25.50;12.53;;;12.00;99.90;;;;;;5073135;28;19924;-67
2022/05/17 03:36:42;;;;;;;28.98;13.02;;;13.60;99.90;;;;;;5071764;28;20044;-66
2022/05/17 03:39:08;;;;;;;32.10;12.10;;;12.20;99.90;;;;;;5072840;28;20064;-67
2022/05/17 03:41:34;;;;;;;29.73;12.02;;;12.20;99.90;;;;;;5072824;28;20454;-67
2022/05/17 03:43:59;;;;;;;33.17;11.80;;;12.20;99.90;;;;;;5072737;28;20408;-68
2022/05/17 03:46:25;;;;;;;28.95;11.73;;;12.20;99.90;;;;;;5072652;28;20518;-68
2022/05/17 03:48:51;;;;;;;36.90;12.63;;;12.30;99.90;;;;;;5072661;28;20531;-67
2022/05/17 03:51:19;;;;;;;34.05;12.07;;;12.60;99.90;;;;;;5105460;28;20126;-67
2022/05/17 03:53:47;;;;;;;33.20;12.15;;;12.50;99.90;;;;;;5072594;28;20048;-68
2022/05/17 03:56:13;;;;;;;28.80;11.50;;;12.60;99.90;;;;;;5072689;28;20095;-67
2022/05/17 03:58:39;;;;;;;37.38;13.05;;;12.50;99.90;;;;;;5072486;28;20469;-68
2022/05/17 04:01:05;;;;;;;32.05;11.88;;;12.70;99.90;;;;;;5072352;28;20135;-67
2022/05/17 04:03:31;;;;;;;35.70;12.50;;;12.80;99.90;;;;;;5072788;28;20058;-68
2022/05/17 04:05:57;;;;;;;31.55;12.38;;;12.60;99.90;;;;;;5105121;28;20079;-68
2022/05/17 04:08:23;;;;;;;31.17;12.15;;;12.50;99.90;;;;;;5072537;28;20507;-68
2022/05/17 04:10:48;;;;;;;35.85;11.73;;;12.70;99.90;;;;;;5072332;28;20098;-68
2022/05/17 04:13:14;;;;;;;28.08;11.90;;;13.00;99.90;;;;;;5071431;28;20049;-68
2022/05/17 04:15:41;;;;;;;;;;;13.70;99.90;;;;;;5072610;28;20060;-72
2022/05/17 04:18:07;;;;;;;29.75;12.00;;;13.40;99.90;;;;;;5072406;28;19973;-69
2022/05/17 04:20:33;;;;;;;28.75;11.40;;;13.10;99.90;;;;;;5072437;28;20101;-68
2022/05/17 04:22:58;;;;;;;;;;;13.10;99.90;;;;;;5072579;28;20511;-68
2022/05/17 04:25:25;;;;;;;38.75;11.98;;;13.50;99.90;;;;;;5072148;28;19920;-68
2022/05/17 04:27:52;;;;;;;30.17;12.10;;;13.40;99.90;;;;;;5072150;28;20036;-68
2022/05/17 04:30:18;;;;;;;;;;;14.80;99.90;;;;;;5072139;28;20053;-68
2022/05/17 04:32:44;;;;;;;35.47;12.10;;;13.60;99.90;;;;;;5070905;28;19920;-69
2022/05/17 04:35:11;;;;;;;29.90;12.32;;;13.70;99.90;;;;;;5071044;28;20071;-69
2022/05/17 04:37:37;;;;;;;33.92;12.35;;;13.70;99.90;;;;;;5072002;28;20485;-68
2022/05/17 04:40:08;;;;;;;28.48;11.52;;;14.20;99.90;;;;;;5072153;28;20036;-68
2022/05/17 04:42:37;;;;;;;28.83;10.80;;;14.00;99.90;;;;;;5072117;28;20040;-69
2022/05/17 04:45:05;;;;;;;28.73;10.98;;;13.90;99.90;;;;;;5072114;28;20467;-69
2022/05/17 04:47:31;;;;;;;26.08;10.27;;;14.30;99.90;;;;;;5072257;28;20045;-68
2022/05/17 04:49:57;;;;;;;23.30;9.32;;;14.30;99.90;;;;;;5071922;28;20049;-69
2022/05/17 04:52:23;;;;;;;;;;;14.30;99.90;;;;;;5072536;28;20048;-68
2022/05/17 04:54:50;;;;;;;29.00;10.27;;;14.60;99.90;;;;;;5071928;28;19934;-68
2022/05/17 04:57:15;;;;;;;29.00;10.00;;;14.70;99.90;;;;;;5104383;28;20094;-70
2022/05/17 04:59:41;;;;;;;26.98;10.43;;;14.60;99.90;;;;;;5072196;28;20535;-68
2022/05/17 05:02:07;;;;;;;22.70;9.32;;;14.50;99.90;;;;;;5072039;28;20492;-68
2022/05/17 05:04:33;;;;;;;27.98;9.00;;;14.70;99.90;;;;;;5072000;28;20442;-68
2022/05/17 05:07:00;;;;;;;26.50;9.50;;;14.80;99.90;;;;;;5071833;28;20048;-68
2022/05/17 05:09:26;;;;;;;24.85;8.90;;;14.90;99.90;;;;;;5071818;28;20123;-69
2022/05/17 05:11:53;;;;;;;26.92;8.90;;;14.40;99.90;;;;;;5071637;28;20053;-68
2022/05/17 05:14:18;;;;;;;;;;;14.30;99.90;;;;;;5072426;28;20059;-68
2022/05/17 05:16:44;;;;;;;35.85;9.38;;;15.00;99.90;;;;;;5071660;28;19920;-68
2022/05/17 05:19:10;;;;;;;24.10;8.65;;;14.50;99.90;;;;;;5070621;28;20051;-68
2022/05/17 05:21:36;;;;;;;25.20;8.38;;;15.10;99.90;;;;;;5071851;28;20052;-69
2022/05/17 05:24:04;;;;;;;19.85;8.45;;;14.70;99.90;;;;;;5071641;28;20040;-68
2022/05/17 05:26:32;;;;;;;30.88;8.32;;;14.80;99.90;;;;;;5071583;28;20036;-68
2022/05/17 05:28:58;;;;;;;26.33;8.32;;;14.70;99.90;;;;;;5071597;28;20127;-68
2022/05/17 05:31:24;;;;;;;23.35;7.80;;;15.00;99.90;;;;;;5071752;28;20486;-68
2022/05/17 05:33:49;;;;;;;25.42;8.35;;;14.60;99.90;;;;;;5071575;28;20396;-68
2022/05/17 05:36:15;;;;;;;;;;;14.90;99.90;;;;;;5072287;28;20055;-68
2022/05/17 05:38:41;;;;;;;24.33;7.80;;;15.10;99.90;;;;;;5075121;28;19924;-69
2022/05/17 05:41:12;;;;;;;25.58;7.78;;;15.40;99.90;;;;;;5074990;28;20052;-68
2022/05/17 05:43:38;;;;;;;24.25;6.97;;;15.10;99.90;;;;;;5075267;28;20128;-69
2022/05/17 05:46:04;;;;;;;18.48;7.22;;;15.10;99.90;;;;;;5075117;28;20131;-69
2022/05/17 05:48:31;;;;;;;23.95;7.35;;;16.30;99.90;;;;;;5074142;28;20053;-68
2022/05/17 05:50:57;;;;;;;20.52;6.63;;;15.40;99.90;;;;;;5074983;28;20056;-68
2022/05/17 05:53:23;;;;;;;17.73;6.03;;;15.30;99.90;;;;;;5074522;28;20381;-70
2022/05/17 05:55:57;;;;;;;20.05;5.95;;;15.60;99.90;;;;;;5093727;28;20040;-69
2022/05/17 05:58:24;;;;;;;21.48;6.68;;;15.50;99.90;;;;;;5095105;28;20470;-69
2022/05/17 06:00:50;;;;;;;19.15;6.53;;;15.60;99.90;;;;;;5095141;28;20040;-68
2022/05/17 06:03:16;;;;;;;19.50;6.35;;;15.50;99.90;;;;;;5094109;28;20443;-68
2022/05/17 06:05:42;;;;;;;;;;;15.70;99.90;;;;;;5095439;28;20112;-69
2022/05/17 06:08:12;;;;;;;17.17;5.82;;;15.60;99.90;;;;;;5094734;28;19919;-69
2022/05/17 06:10:38;;;;;;;27.45;7.13;;;15.80;99.90;;;;;;5094991;28;20040;-68
2022/05/17 06:13:04;;;;;;;17.73;6.55;;;15.30;99.90;;;;;;5093763;28;20416;-69
2022/05/17 06:15:30;;;;;;;18.52;6.18;;;15.80;99.90;;;;;;5085648;28;20139;-68
2022/05/17 06:18:00;;;;;;;;;;;16.10;99.90;;;;;;5093949;28;20095;-69
2022/05/17 06:20:25;;;;;;;20.38;6.35;;;15.90;99.90;;;;;;5092063;28;19969;-68
2022/05/17 06:22:51;;;;;;;24.33;7.82;;;16.00;99.90;;;;;;5093123;28;20051;-68
2022/05/17 06:25:17;;;;;;;;;;;16.10;99.90;;;;;;5092019;28;20052;-68
2022/05/17 06:27:42;;;;;;;22.85;7.53;;;15.90;99.90;;;;;;5093495;28;19924;-72
2022/05/17 06:30:10;;;;;;;18.67;6.15;;;16.20;99.90;;;;;;5092757;28;20068;-68
2022/05/17 06:32:35;;;;;;;13.25;6.97;;;15.90;99.90;;;;;;5091852;28;20517;-68
2022/05/17 06:35:01;;;;;;;;;;;16.60;99.90;;;;;;5092199;28;20040;-67
2022/05/17 06:37:27;;;;;;;20.58;6.15;;;16.20;99.90;;;;;;5092733;28;19924;-68
2022/05/17 06:39:52;;;;;;;;;;;16.10;99.90;;;;;;5093848;28;20094;-68
2022/05/17 06:42:18;;;;;;;28.75;7.18;;;16.20;99.90;;;;;;5093319;28;19924;-72
2022/05/17 06:44:43;;;;;;;;;;;16.20;99.90;;;;;;5091716;28;20044;-69
2022/05/17 06:47:09;;;;;;;20.08;5.80;;;16.10;99.90;;;;;;5073550;28;20021;-68
2022/05/17 06:49:39;;;;;;;;;;;16.00;99.90;;;;;;5099459;28;20043;-69
2022/05/17 06:52:07;;;;;;;23.35;6.45;;;16.00;99.90;;;;;;5112369;28;20544;-69
2022/05/17 06:54:32;;;;;;;22.60;6.47;;;16.50;99.90;;;;;;5103005;28;20052;-69
2022/05/17 06:57:02;;;;;;;;;;;16.60;99.90;;;;;;5093078;28;20047;-68
2022/05/17 06:59:30;;;;;;;21.15;6.57;;;16.50;99.90;;;;;;5093843;28;20355;-69
2022/05/17 07:01:57;;;;;;;20.42;6.85;;;16.60;99.90;;;;;;5093679;28;20044;-69
2022/05/17 07:04:22;;;;;;;16.08;6.18;;;16.50;99.90;;;;;;5093820;28;20052;-69
2022/05/17 07:06:48;;;;;;;;;;;16.40;99.90;;;;;;5094035;28;20422;-70
2022/05/17 07:09:14;;;;;;;16.02;6.15;;;16.50;99.90;;;;;;5093886;28;19965;-68
2022/05/17 07:14:23;;;;;;;20.23;5.72;;;16.70;99.90;;;;;;5093675;28;20410;-69
2022/05/17 07:16:49;;;;;;;;;;;16.90;99.90;;;;;;5093927;28;20043;-68
2022/05/17 07:19:15;;;;;;;19.40;6.53;;;17.30;99.90;;;;;;5093434;28;20028;-69
2022/05/17 07:21:40;;;;;;;;;;;17.20;99.90;;;;;;5093938;28;20146;-69
2022/05/17 07:24:06;;;;;;;17.27;5.88;;;17.30;99.90;;;;;;5093572;28;19919;-69
2022/05/17 07:26:32;;;;;;;;;;;17.10;99.90;;;;;;5076138;28;20160;-69
2022/05/17 07:28:57;;;;;;;20.23;5.70;;;17.40;99.90;;;;;;5093331;28;19928;-70
2022/05/17 07:31:23;;;;;;;;;;;17.10;99.90;;;;;;5093592;28;20059;-71
2022/05/17 07:33:49;;;;;;;13.30;5.80;;;17.30;99.90;;;;;;5093173;28;20253;-69
2022/05/17 07:36:14;;;;;;;;;;;17.60;99.90;;;;;;5092794;28;20048;-69
2022/05/17 07:38:40;;;;;;;33.08;6.20;;;17.60;99.90;;;;;;5092033;28;19972;-69
2022/05/17 07:41:06;;;;;;;16.80;6.70;;;17.40;99.90;;;;;;5093304;28;20048;-69
2022/05/17 07:43:32;;;;;;;;;;;17.70;99.90;;;;;;5092256;28;20051;-69
2022/05/17 07:45:58;;;;;;;22.88;6.28;;;17.70;99.90;;;;;;5091793;28;19924;-71
2022/05/17 07:48:25;;;;;;;;;;;17.70;99.90;;;;;;5093400;28;20051;-69
2022/05/17 07:50:51;;;;;;;;;;;17.60;99.90;;;;;;5093442;28;20046;-69
2022/05/17 07:53:19;;;;;;;16.70;5.10;;;17.80;99.90;;;;;;5093108;28;20022;-69
2022/05/17 07:55:46;;;;;;;19.13;5.70;;;17.70;99.90;;;;;;5092939;28;20051;-69
2022/05/17 07:58:13;;;;;;;17.13;6.53;;;18.10;99.90;;;;;;5092967;28;20476;-69
2022/05/17 08:00:40;;;;;;;20.92;6.38;;;17.50;99.90;;;;;;5092422;28;20084;-70
2022/05/17 08:03:08;;;;;;;22.10;6.13;;;17.60;99.90;;;;;;5092642;28;20506;-69
2022/05/17 08:05:35;;;;;;;16.60;6.43;;;17.90;99.90;;;;;;5092913;28;20044;-69
2022/05/17 08:08:02;;;;;;;15.38;5.60;;;18.00;99.90;;;;;;5092785;28;20048;-69
2022/05/17 08:10:28;;;;;;;17.38;5.53;;;17.70;99.90;;;;;;5092638;28;20044;-70
2022/05/17 08:12:54;;;;;;;14.30;4.55;;;18.20;99.90;;;;;;5092731;28;20052;-69
2022/05/17 08:15:20;;;;;;;;;;;18.20;99.90;;;;;;5093026;28;20054;-69
2022/05/17 08:17:46;;;;;;;18.63;4.97;;;18.40;99.90;;;;;;5092535;28;19924;-69
2022/05/17 08:20:12;;;;;;;;;;;18.50;99.90;;;;;;5093158;28;20048;-70
2022/05/17 08:22:40;;;;;;;19.17;5.70;;;18.10;99.90;;;;;;5092454;28;19920;-69
2022/05/17 08:28:05;;;;;;;14.48;4.57;;;18.60;99.90;;;;;;5079979;28;20135;-68
2022/05/17 08:30:32;;;;;;;15.10;5.05;;;18.80;99.90;;;;;;5092209;28;20083;-70
2022/05/17 08:33:16;;;;;;;15.63;4.32;;;18.70;99.90;;;;;;5091187;28;20492;-69
2022/05/17 08:35:46;;;;;;;18.17;5.00;;;19.10;99.90;;;;;;5092494;28;20125;-70
2022/05/17 08:38:14;;;;;;;16.13;4.53;;;18.80;99.90;;;;;;5092452;28;20059;-69
2022/05/17 08:41:05;;;;;;;17.23;4.40;;;18.70;99.90;;;;;;5092308;28;20051;-68
2022/05/17 08:43:54;;;;;;;16.77;5.53;;;19.30;99.90;;;;;;5092365;28;20044;-69
2022/05/17 08:46:31;;;;;;;15.13;4.15;;;19.30;99.90;;;;;;5092358;28;20058;-69
2022/05/17 08:49:21;;;;;;;16.58;4.88;;;19.20;99.90;;;;;;5091140;28;20384;-70
2022/05/17 08:52:07;;;;;;;16.83;5.15;;;19.00;99.90;;;;;;5092376;28;20067;-70
2022/05/17 08:54:36;;;;;;;12.63;4.25;;;19.10;99.90;;;;;;5092363;28;20847;-70
2022/05/17 08:57:20;;;;;;;11.65;4.45;;;19.50;99.90;;;;;;5074310;28;20048;-70
2022/05/17 08:59:47;;;;;;;12.07;4.28;;;19.20;99.90;;;;;;5092354;28;20048;-69
2022/05/17 09:02:37;;;;;;;19.13;4.88;;;19.30;99.90;;;;;;5092338;28;20055;-70
2022/05/17 09:05:15;;;;;;;17.35;5.22;;;19.30;99.90;;;;;;5090811;28;20484;-70
2022/05/17 09:07:56;;;;;;;15.93;4.60;;;19.50;99.90;;;;;;5092069;28;20076;-70
2022/05/17 09:10:30;;;;;;;14.07;4.65;;;19.40;99.90;;;;;;5092063;28;20113;-69
2022/05/17 09:13:10;;;;;;;16.08;4.38;;;19.60;99.90;;;;;;5095094;28;20131;-69
2022/05/17 09:15:36;;;;;;;12.27;4.45;;;19.90;99.90;;;;;;5094806;28;20063;-70
2022/05/17 09:18:07;;;;;;;14.80;4.43;;;20.10;99.90;;;;;;5095793;28;20048;-70
2022/05/17 09:20:34;;;;;;;9.77;3.65;;;20.00;99.90;;;;;;5096135;28;20044;-70
2022/05/17 09:23:01;;;;;;;18.80;4.68;;;19.70;99.90;;;;;;5095874;28;20426;-69
2022/05/17 09:26:02;;;;;;;12.25;4.00;;;20.20;99.90;;;;;;5095880;28;20044;-70
2022/05/17 09:28:55;;;;;;;10.40;3.28;;;20.20;99.90;;;;;;5095681;28;20488;-69
2022/05/17 09:31:23;;;;;;;15.32;3.90;;;20.20;99.90;;;;;;5095298;28;20060;-70
2022/05/17 09:33:50;;;;;;;11.18;4.05;;;20.00;99.90;;;;;;5095562;28;20059;-70
2022/05/17 09:36:22;;;;;;;12.25;3.75;;;20.10;99.90;;;;;;5095607;28;20498;-70
2022/05/17 09:38:50;;;;;;;17.33;4.85;;;20.30;99.90;;;;;;5094619;28;20082;-69
2022/05/17 09:41:21;;;;;;;12.68;4.20;;;20.40;99.90;;;;;;5095470;28;20100;-69
2022/05/17 09:44:23;;;;;;;16.60;4.65;;;20.20;99.90;;;;;;5094737;28;20055;-70
2022/05/17 09:46:55;;;;;;;14.98;3.75;;;20.80;99.90;;;;;;5095480;28;20052;-70
2022/05/17 09:52:32;;;;;;;11.40;3.80;;;20.80;99.90;;;;;;5113808;28;20398;-69
2022/05/17 09:55:11;;;;;;;12.48;3.88;;;20.60;99.90;;;;;;5115636;28;20109;-69
2022/05/17 09:57:37;;;;;;;10.27;4.00;;;21.00;99.90;;;;;;5115447;28;20078;-69
2022/05/17 10:00:16;;;;;;;14.32;3.92;;;20.90;99.90;;;;;;5115749;28;20507;-69
2022/05/17 10:03:19;;;;;;;14.02;3.70;;;20.80;99.90;;;;;;5115557;28;20491;-69
2022/05/17 10:05:54;;;;;;;15.43;4.00;;;21.20;99.90;;;;;;5102339;28;20443;-70
2022/05/17 10:08:20;;;;;;;13.93;3.75;;;21.00;99.90;;;;;;5115249;28;20511;-70
2022/05/17 10:10:47;;;;;;;14.23;4.28;;;21.30;99.90;;;;;;5114051;28;20040;-70
2022/05/17 10:13:29;;;;;;;13.65;3.97;;;21.40;99.90;;;;;;5115383;28;20130;-70
2022/05/17 10:16:00;;;;;;;8.60;3.92;;;21.60;99.90;;;;;;5115206;28;20091;-71
2022/05/17 10:18:46;;;;;;;12.93;3.72;;;19.20;99.90;;;;;;5115088;28;20094;-70
2022/05/17 10:21:19;;;;;;;18.58;3.95;;;21.90;99.90;;;;;;5114716;28;20142;-70
2022/05/17 10:24:12;;;;;;;13.43;3.88;;;22.10;99.90;;;;;;5114776;28;20134;-70
2022/05/17 10:26:46;;;;;;;15.45;3.92;;;21.80;99.90;;;;;;5109090;28;20052;-70
2022/05/17 10:29:27;;;;;;;15.32;4.03;;;21.70;99.90;;;;;;5114205;28;20052;-70
2022/05/17 10:32:14;;;;;;;10.88;3.10;;;21.90;99.90;;;;;;5115061;28;20052;-71
2022/05/17 10:35:06;;;;;;;13.88;3.72;;;21.80;99.90;;;;;;5115058;28;20097;-70
2022/05/17 10:37:41;;;;;;;14.32;3.70;;;22.10;99.90;;;;;;5098281;28;20075;-70
2022/05/17 10:40:14;;;;;;;11.57;3.53;;;22.40;99.90;;;;;;5114891;28;20031;-70
2022/05/17 10:42:42;;;;;;;12.05;3.90;;;22.00;99.90;;;;;;5114908;28;20055;-72
2022/05/17 10:45:16;;;;;;;14.45;4.18;;;22.00;99.90;;;;;;5114705;28;20051;-70
2022/05/17 10:47:47;;;;;;;12.55;3.33;;;21.90;99.90;;;;;;5114588;28;20087;-70
2022/05/17 10:50:32;;;;;;;13.98;4.35;;;22.30;99.90;;;;;;5114510;28;20054;-70
2022/05/17 10:53:25;;;;;;;13.32;3.45;;;22.30;99.90;;;;;;5114556;28;20044;-73
2022/05/17 10:56:03;;;;;;;16.95;3.67;;;22.00;99.90;;;;;;5113264;28;20108;-71
2022/05/17 10:58:45;;;;;;;13.98;3.83;;;22.10;99.90;;;;;;5114470;28;20043;-69
2022/05/17 11:01:34;;;;;;;13.95;3.88;;;22.40;99.90;;;;;;5114546;28;20130;-71
2022/05/17 11:04:24;;;;;;;11.05;3.60;;;22.70;99.90;;;;;;5114253;28;20040;-70
2022/05/17 11:07:11;;;;;;;10.68;2.92;;;22.40;99.90;;;;;;5113184;28;20047;-71
2022/05/17 11:10:01;;;;;;;16.05;4.47;;;22.70;99.90;;;;;;5114257;28;20502;-70
2022/05/17 11:12:34;;;;;;;10.85;3.30;;;22.70;99.90;;;;;;5114097;28;20135;-70
2022/05/17 11:15:08;;;;;;;12.20;3.00;;;22.80;99.90;;;;;;5114017;28;20054;-70
2022/05/17 11:17:41;;;;;;;11.32;3.30;;;22.70;99.90;;;;;;5112808;28;20479;-70
2022/05/17 11:20:31;;;;;;;10.68;3.42;;;22.90;99.90;;;;;;5114086;28;20134;-70
2022/05/17 11:23:15;;;;;;;11.90;3.17;;;22.60;99.90;;;;;;5114021;28;20152;-70
2022/05/17 11:25:58;;;;;;;14.77;3.40;;;23.10;99.90;;;;;;5113073;28;20055;-71
2022/05/17 11:29:01;;;;;;;8.88;2.60;;;23.00;99.90;;;;;;5113955;28;20039;-70
2022/05/17 11:31:57;;;;;;;9.65;3.25;;;23.00;99.90;;;;;;5113439;28;20087;-70
2022/05/17 11:34:23;;;;;;;11.88;3.08;;;23.60;99.90;;;;;;5112994;28;20487;-69
2022/05/17 11:36:51;;;;;;;15.77;3.38;;;23.60;99.90;;;;;;5113680;28;20101;-70
2022/05/17 11:39:32;;;;;;;7.18;2.88;;;23.50;99.90;;;;;;5112691;28;20048;-70
2022/05/17 11:42:11;;;;;;;11.57;3.72;;;23.40;99.90;;;;;;5113435;28;20104;-71
2022/05/17 11:44:43;;;;;;;11.50;3.70;;;23.60;99.90;;;;;;5113503;28;20568;-73
2022/05/17 11:47:57;;;;;;;14.82;3.90;;;22.90;99.90;;;;;;5113515;28;20051;-71
2022/05/17 11:50:28;;;;;;;17.40;3.83;;;23.20;99.90;;;;;;5070231;28;20051;-70
2022/05/17 11:53:21;;;;;;;14.02;3.63;;;23.50;99.90;;;;;;5070460;28;20180;-71
2022/05/17 11:56:15;;;;;;;15.23;3.65;;;23.20;99.90;;;;;;5102721;28;20087;-71
2022/05/17 11:58:42;;;;;;;14.20;3.70;;;23.30;99.90;;;;;;5112111;28;20058;-72
2022/05/17 12:01:26;;;;;;;17.45;3.38;;;23.50;99.90;;;;;;5113445;28;20470;-74
2022/05/17 12:04:04;;;;;;;14.07;3.67;;;23.00;99.90;;;;;;5113254;28;20089;-73
2022/05/17 12:07:04;;;;;;;12.95;3.50;;;23.00;99.90;;;;;;5113424;28;20051;-74
2022/05/17 12:09:46;;;;;;;16.38;3.30;;;22.80;99.90;;;;;;5113317;28;20062;-71
2022/05/17 12:12:34;;;;;;;17.00;3.45;;;22.80;99.90;;;;;;5113282;28;20043;-72
2022/05/17 12:15:30;;;;;;;17.13;4.28;;;23.10;99.90;;;;;;5112202;28;20180;-76
2022/05/17 12:18:09;;;;;;;20.90;8.47;;;23.10;99.90;;;;;;5113220;28;20055;-72
2022/05/17 12:21:12;;;;;;;12.45;2.78;;;23.10;99.90;;;;;;5113082;28;20678;-73
2022/05/17 12:23:56;;;;;;;15.90;3.35;;;23.40;99.90;;;;;;5111837;28;20082;-71
2022/05/17 12:26:37;;;;;;;16.77;5.22;;;23.10;99.90;;;;;;5112930;28;20083;-71
2022/05/17 12:30:53;;;;;;;16.08;3.78;;;23.30;99.90;;;;;;5112829;28;20547;-72
2022/05/17 12:32:06;;;;;;;13.82;2.97;;;23.20;99.90;;;;;;5112659;28;20056;-75
2022/05/17 12:34:33;;;;;;;10.13;3.00;;;23.30;99.90;;;;;;5112847;28;20094;-72
2022/05/17 12:37:10;;;;;;;11.20;2.55;;;23.30;99.90;;;;;;5112821;28;20039;-71
2022/05/17 12:45:15;;;;;;;10.63;3.50;;;23.40;99.90;;;;;;5112767;28;20047;-70
2022/05/17 12:47:50;;;;;;;13.88;4.03;;;23.70;99.90;;;;;;5117047;28;20057;-69
2022/05/17 12:50:19;;;;;;;15.80;4.18;;;23.80;99.90;;;;;;5115580;28;20047;-71
2022/05/17 12:52:51;;;;;;;11.18;3.90;;;23.70;99.90;;;;;;5116691;28;20047;-72
2022/05/17 12:55:19;;;;;;;11.32;3.47;;;23.70;99.90;;;;;;5116969;28;20043;-74
2022/05/17 12:57:45;;;;;;;16.55;3.50;;;23.60;99.90;;;;;;5115873;28;20050;-70
2022/05/17 13:00:23;;;;;;;13.57;3.58;;;23.50;99.90;;;;;;5116760;27;20490;-71
2022/05/17 13:02:58;;;;;;;12.15;3.53;;;24.00;99.90;;;;;;5116688;28;20044;-72
2022/05/17 13:05:39;;;;;;;17.03;3.60;;;23.70;99.90;;;;;;5116444;28;20494;-70
2022/05/17 13:08:33;;;;;;;12.35;3.65;;;24.10;99.90;;;;;;5116678;28;20044;-69
2022/05/17 13:11:24;;;;;;;11.88;3.63;;;24.40;99.90;;;;;;5112232;28;20064;-70
2022/05/17 13:13:55;;;;;;;16.55;4.00;;;24.60;99.90;;;;;;5116245;28;20044;-69
2022/05/17 13:16:25;;;;;;;14.98;3.55;;;24.50;99.90;;;;;;5115412;28;20102;-70
2022/05/17 13:18:54;;;;;;;14.07;4.10;;;24.50;99.90;;;;;;5116507;28;20047;-71